Time;durP1;ratioP1;P1;durP2;ratioP2;P2;SDS_P1;SDS_P2;PMS_P1;PMS_P2;Temp;Humidity;BMP_temperature;BMP_pressure;BME280_temperature;BME280_humidity;BME280_pressure;Samples;Min_cycle;Max_cycle;Signal;HPM_P1;HPM_P2
2023/09/17 00:00:13;;;;;;;;;;;;;;;23.89;50.50;100219.34;4279465;33;34053;-72
2023/09/17 00:02:40;;;;;;;;;;;;;;;23.23;53.01;100217.66;4277448;33;34703;-74
2023/09/17 00:05:08;;;;;;;;;;;;;;;23.72;51.76;100211.41;4265399;33;33440;-72
2023/09/17 00:07:35;;;;;;;;;;;;;;;24.31;49.68;100214.78;4280067;33;34771;-71
2023/09/17 00:10:03;;;;;;;;;;;;;;;23.75;51.42;100222.88;4285213;33;34112;-74
2023/09/17 00:12:30;;;;;;;;;;;;;;;23.60;51.51;100217.63;4285000;33;34137;-74
2023/09/17 00:14:57;;;;;;;;;;;;;;;22.30;55.49;100215.72;4283809;33;33614;-73
2023/09/17 00:17:25;;;;;;;;;;;;;;;24.02;50.91;100204.31;4282634;33;34341;-72
2023/09/17 00:19:53;;;;;;;;;;;;;;;24.78;48.32;100202.16;4284051;33;33433;-75
2023/09/17 00:22:20;;;;;;;;;;;;;;;24.21;49.80;100207.78;4278901;33;34612;-71
2023/09/17 00:24:48;;;;;;;;;;;;;;;23.17;52.54;100196.53;4284192;33;33633;-75
2023/09/17 00:27:15;;;;;;;;;;;;;;;22.86;53.11;100196.47;4277232;33;34168;-73
2023/09/17 00:29:42;;;;;;;;;;;;;;;22.90;53.15;100195.59;4278393;33;34522;-75
2023/09/17 00:32:10;;;;;;;;;;;;;;;23.25;52.03;100199.16;4283010;33;34727;-74
2023/09/17 00:34:37;;;;;;;;;;;;;;;24.13;49.23;100194.56;4284873;33;33453;-72
2023/09/17 00:37:04;;;;;;;;;;;;;;;24.40;48.01;100196.22;4278155;33;34100;-72
2023/09/17 00:39:32;;;;;;;;;;;;;;;23.81;50.16;100199.97;4277296;33;36333;-74
2023/09/17 00:41:59;;;;;;;;;;;;;;;23.82;49.59;100199.09;4281123;33;33924;-71
2023/09/17 00:44:26;;;;;;;;;;;;;;;23.93;49.76;100195.53;4283665;33;34017;-71
2023/09/17 00:46:55;;;;;;;;;;;;;;;23.25;51.98;100192.09;4279276;33;33851;-72
2023/09/17 00:49:22;;;;;;;;;;;;;;;24.04;49.78;100189.31;4259121;33;33974;-73
2023/09/17 00:51:50;;;;;;;;;;;;;;;23.60;50.71;100195.59;4288450;33;34633;-75
2023/09/17 00:54:17;;;;;;;;;;;;;;;23.26;51.93;100185.94;4285264;33;32938;-74
2023/09/17 00:56:45;;;;;;;;;;;;;;;23.83;49.68;100187.62;4264870;33;34193;-73
2023/09/17 00:59:12;;;;;;;;;;;;;;;23.98;49.24;100186.69;4271801;33;35681;-73
2023/09/17 01:01:39;;;;;;;;;;;;;;;23.93;49.41;100189.34;4268291;33;34146;-74
2023/09/17 01:04:07;;;;;;;;;;;;;;;23.85;49.34;100185.84;4280682;33;33333;-71
2023/09/17 01:06:35;;;;;;;;;;;;;;;22.96;52.39;100187.66;4265457;33;34356;-75
2023/09/17 01:09:04;;;;;;;;;;;;;;;23.51;50.42;100191.22;4265764;33;34321;-73
2023/09/17 01:11:32;;;;;;;;;;;;;;;23.67;50.41;100197.34;4273426;33;34295;-75
2023/09/17 01:14:10;;;;;;;;;;;;;;;22.00;55.07;100193.59;4287242;33;33259;-75
2023/09/17 01:16:37;;;;;;;;;;;;;;;22.31;54.44;100191.06;4268467;33;34425;-75
2023/09/17 01:19:07;;;;;;;;;;;;;;;23.01;52.31;100189.47;4262149;33;34857;-75
2023/09/17 01:21:37;;;;;;;;;;;;;;;23.40;50.83;100187.69;4285498;33;34717;-75
2023/09/17 01:24:20;;;;;;;;;;;;;;;22.45;53.40;100194.66;4265088;33;33301;-72
2023/09/17 01:27:01;;;;;;;;;;;;;;;22.60;52.94;100198.19;4264055;33;34545;-72
2023/09/17 01:29:37;;;;;;;;;;;;;;;23.60;50.48;100191.16;4273720;33;34461;-73
2023/09/17 01:32:04;;;;;;;;;;;;;;;24.65;47.35;100191.69;4287592;33;33891;-71
2023/09/17 01:34:38;;;;;;;;;;;;;;;25.04;46.12;100186.09;4283033;33;33833;-74
2023/09/17 01:37:07;;;;;;;;;;;;;;;25.17;45.66;100187.75;4263230;33;34895;-73
2023/09/17 01:39:40;;;;;;;;;;;;;;;25.39;44.86;100187.56;4263821;33;34279;-74
2023/09/17 01:42:08;;;;;;;;;;;;;;;25.39;44.93;100187.56;4285271;33;34732;-74
2023/09/17 01:44:35;;;;;;;;;;;;;;;23.23;50.24;100179.78;4267595;33;33397;-72
2023/09/17 01:47:03;;;;;;;;;;;;;;;22.38;53.21;100177.03;4266594;33;33701;-74
2023/09/17 01:49:32;;;;;;;;;;;;;;;23.26;50.59;100170.09;4263242;33;32375;-75
2023/09/17 01:52:00;;;;;;;;;;;;;;;23.38;50.48;100176.25;4273636;33;34195;-71
2023/09/17 01:54:27;;;;;;;;;;;;;;;22.28;52.89;100175.25;4268744;33;32711;-73
2023/09/17 01:56:55;;;;;;;;;;;;;;;23.16;50.23;100189.50;4273714;33;34746;-74
2023/09/17 01:59:22;;;;;;;;;;;;;;;23.52;48.34;100183.25;4277993;33;34651;-72
2023/09/17 02:01:49;;;;;;;;;;;;;;;22.69;52.03;100182.38;4285999;33;33188;-72
2023/09/17 02:04:17;;;;;;;;;;;;;;;23.14;50.69;100185.94;4285962;33;33069;-71
2023/09/17 02:06:45;;;;;;;;;;;;;;;22.86;50.48;100188.56;4285951;33;34134;-74
2023/09/17 02:09:13;;;;;;;;;;;;;;;23.77;49.39;100184.97;4265495;33;34011;-72
2023/09/17 02:11:40;;;;;;;;;;;;;;;24.37;47.45;100180.31;4284352;33;34308;-72
2023/09/17 02:14:08;;;;;;;;;;;;;;;24.67;46.40;100178.44;4284992;33;34072;-73
2023/09/17 02:16:37;;;;;;;;;;;;;;;24.90;45.43;100171.19;4276030;33;34647;-74
2023/09/17 02:19:04;;;;;;;;;;;;;;;25.16;44.44;100171.84;4276051;33;34638;-74
2023/09/17 02:21:32;;;;;;;;;;;;;;;25.12;44.32;100168.34;4287433;33;33474;-71
2023/09/17 02:24:01;;;;;;;;;;;;;;;24.77;45.68;100169.50;4275295;33;33514;-72
2023/09/17 02:26:29;;;;;;;;;;;;;;;24.43;45.98;100164.41;4281124;33;34284;-74
2023/09/17 02:28:56;;;;;;;;;;;;;;;23.36;48.84;100176.25;4281616;33;33665;-73
2023/09/17 02:31:24;;;;;;;;;;;;;;;23.11;49.59;100167.47;4279422;33;34739;-73
2023/09/17 02:33:51;;;;;;;;;;;;;;;23.24;48.55;100166.56;4283891;33;33859;-75
2023/09/17 02:36:19;;;;;;;;;;;;;;;22.94;49.25;100163.03;4280952;33;33846;-74
2023/09/17 02:38:46;;;;;;;;;;;;;;;23.20;48.71;100161.28;4283732;33;34899;-74
2023/09/17 02:41:14;;;;;;;;;;;;;;;22.41;51.64;100161.22;4272092;33;33772;-71
2023/09/17 02:43:41;;;;;;;;;;;;;;;22.02;53.81;100170.75;4273680;33;34195;-72
2023/09/17 02:46:08;;;;;;;;;;;;;;;24.00;47.89;100166.41;4282734;33;34963;-74
2023/09/17 02:48:36;;;;;;;;;;;;;;;23.71;48.65;100168.22;4276381;33;34267;-73
2023/09/17 02:51:03;;;;;;;;;;;;;;;23.47;49.31;100168.28;4276435;33;34172;-72
2023/09/17 02:53:31;;;;;;;;;;;;;;;23.15;50.05;100161.28;4269926;33;33325;-72
2023/09/17 02:55:58;;;;;;;;;;;;;;;22.52;51.66;100170.03;4282665;33;34041;-72
2023/09/17 02:58:25;;;;;;;;;;;;;;;22.65;51.33;100162.13;4263742;33;34966;-74
2023/09/17 03:00:53;;;;;;;;;;;;;;;22.44;51.83;100166.47;4280282;33;34953;-74
2023/09/17 03:03:21;;;;;;;;;;;;;;;23.06;49.66;100162.16;4278698;33;33913;-71
2023/09/17 03:05:48;;;;;;;;;;;;;;;22.81;50.68;100166.53;4280772;33;33677;-73
2023/09/17 03:08:15;;;;;;;;;;;;;;;23.04;49.66;100163.06;4288245;33;33940;-72
2023/09/17 03:10:44;;;;;;;;;;;;;;;22.78;50.59;100161.28;4281005;33;34989;-75
2023/09/17 03:13:14;;;;;;;;;;;;;;;22.07;52.84;100155.78;4285252;33;33216;-75
2023/09/17 03:15:44;;;;;;;;;;;;;;;22.62;51.32;100159.47;4286712;33;34951;-75
2023/09/17 03:18:11;;;;;;;;;;;;;;;22.78;50.92;100156.84;4276658;33;33870;-74
2023/09/17 03:20:39;;;;;;;;;;;;;;;23.25;49.36;100155.09;4282823;33;34129;-73
2023/09/17 03:23:06;;;;;;;;;;;;;;;22.81;50.36;100160.38;4278675;33;33077;-73
2023/09/17 03:25:34;;;;;;;;;;;;;;;22.79;50.74;100147.16;4281930;33;35130;-73
2023/09/17 03:28:01;;;;;;;;;;;;;;;23.14;49.11;100148.94;4280469;33;34130;-75
2023/09/17 03:30:29;;;;;;;;;;;;;;;23.11;49.16;100148.97;4277382;33;34481;-74
2023/09/17 03:32:57;;;;;;;;;;;;;;;23.01;49.69;100141.91;4282048;33;34197;-72
2023/09/17 03:35:32;;;;;;;;;;;;;;;22.93;49.76;100147.19;4286917;33;34015;-74
2023/09/17 03:38:00;;;;;;;;;;;;;;;23.17;48.78;100148.97;4276296;33;34076;-73
2023/09/17 03:40:28;;;;;;;;;;;;;;;23.06;48.88;100146.31;4265057;33;32398;-73
2023/09/17 03:42:55;;;;;;;;;;;;;;;22.79;49.78;100152.44;4275588;33;33788;-71
2023/09/17 03:45:23;;;;;;;;;;;;;;;22.62;49.82;100151.56;4275692;33;34373;-71
2023/09/17 03:47:52;;;;;;;;;;;;;;;21.84;52.47;100155.69;4274657;33;33690;-72
2023/09/17 03:50:20;;;;;;;;;;;;;;;22.51;50.49;100152.44;4280571;33;34895;-74
2023/09/17 03:52:49;;;;;;;;;;;;;;;22.63;50.22;100150.69;4283839;33;33519;-75
2023/09/17 03:55:17;;;;;;;;;;;;;;;22.54;50.70;100152.44;4261722;33;34237;-73
2023/09/17 03:57:45;;;;;;;;;;;;;;;22.53;50.86;100155.94;4275862;33;33905;-74
2023/09/17 04:00:15;;;;;;;;;;;;;;;22.65;50.22;100151.56;4266678;33;33500;-72
2023/09/17 04:02:43;;;;;;;;;;;;;;;23.09;49.02;100156.03;4282824;33;32504;-72
2023/09/17 04:05:12;;;;;;;;;;;;;;;22.46;50.49;100159.44;4286329;33;33846;-75
2023/09/17 04:07:40;;;;;;;;;;;;;;;22.58;50.49;100170.06;4276535;33;33715;-75
2023/09/17 04:10:10;;;;;;;;;;;;;;;22.18;52.32;100162.00;4279633;33;33637;-72
2023/09/17 04:12:38;;;;;;;;;;;;;;;21.88;53.41;100169.78;4281238;33;32852;-74
2023/09/17 04:15:09;;;;;;;;;;;;;;;23.60;48.23;100164.72;4274413;33;33970;-73
2023/09/17 04:17:37;;;;;;;;;;;;;;;24.05;46.48;100167.25;4282245;33;34376;-72
2023/09/17 04:20:09;;;;;;;;;;;;;;;24.29;45.66;100160.97;4282952;33;34361;-72
2023/09/17 04:22:37;;;;;;;;;;;;;;;24.40;45.31;100168.84;4284047;33;33385;-75
2023/09/17 04:25:08;;;;;;;;;;;;;;;24.50;44.90;100176.72;4280806;33;34129;-74
2023/09/17 04:27:40;;;;;;;;;;;;;;;24.02;46.17;100173.44;4285935;33;33962;-74
2023/09/17 04:30:08;;;;;;;;;;;;;;;24.29;45.24;100175.06;4280540;33;33709;-72
2023/09/17 04:32:37;;;;;;;;;;;;;;;24.71;44.36;100180.16;4281311;33;33385;-72
2023/09/17 04:35:07;;;;;;;;;;;;;;;22.81;49.06;100181.50;4283717;33;35001;-75
2023/09/17 04:37:34;;;;;;;;;;;;;;;22.16;51.01;100184.84;4287645;33;33888;-71
2023/09/17 04:40:02;;;;;;;;;;;;;;;22.68;50.03;100181.50;4278334;33;34361;-74
2023/09/17 04:42:31;;;;;;;;;;;;;;;22.92;48.81;100183.28;4282211;33;33240;-71
2023/09/17 04:44:59;;;;;;;;;;;;;;;23.48;46.89;100188.56;4284132;33;34564;-74
2023/09/17 04:47:26;;;;;;;;;;;;;;;22.57;48.92;100194.69;4276655;33;33957;-74
2023/09/17 04:49:54;;;;;;;;;;;;;;;21.94;51.66;100188.28;4269318;33;34062;-71
2023/09/17 04:52:21;;;;;;;;;;;;;;;21.74;53.04;100204.88;4272385;33;33200;-74
2023/09/17 04:54:49;;;;;;;;;;;;;;;23.44;48.19;100194.75;4279773;33;34338;-73
2023/09/17 04:57:16;;;;;;;;;;;;;;;23.59;47.45;100194.72;4272437;33;33422;-71
2023/09/17 04:59:44;;;;;;;;;;;;;;;24.23;45.47;100198.94;4285792;33;34574;-74
2023/09/17 05:02:12;;;;;;;;;;;;;;;24.40;44.77;100190.03;4278637;33;33042;-73
2023/09/17 05:04:40;;;;;;;;;;;;;;;24.57;44.45;100192.59;4278931;33;34284;-75
2023/09/17 05:07:08;;;;;;;;;;;;;;;24.49;44.57;100201.47;4272431;33;34204;-73
2023/09/17 05:09:35;;;;;;;;;;;;;;;24.68;44.44;100202.22;4277176;33;34366;-73
2023/09/17 05:12:04;;;;;;;;;;;;;;;23.71;46.90;100207.91;4274989;33;33713;-72
2023/09/17 05:14:31;;;;;;;;;;;;;;;22.73;49.65;100200.84;4271470;33;33708;-74
2023/09/17 05:16:58;;;;;;;;;;;;;;;22.63;50.19;100203.50;4277786;33;34101;-75
2023/09/17 05:19:26;;;;;;;;;;;;;;;22.31;50.91;100209.56;4278281;33;33887;-74
2023/09/17 05:21:53;;;;;;;;;;;;;;;22.52;50.59;100212.28;4275988;33;33409;-72
2023/09/17 05:24:21;;;;;;;;;;;;;;;22.95;49.36;100217.63;4275623;33;34198;-73
2023/09/17 05:26:49;;;;;;;;;;;;;;;22.62;50.75;100214.91;4276782;33;34855;-75
2023/09/17 05:29:16;;;;;;;;;;;;;;;21.79;53.34;100224.25;4276197;33;34341;-73
2023/09/17 05:31:44;;;;;;;;;;;;;;;22.56;51.37;100219.34;4267174;33;33394;-75
2023/09/17 05:34:13;;;;;;;;;;;;;;;22.61;51.54;100218.47;4277746;33;34867;-71
2023/09/17 05:36:40;;;;;;;;;;;;;;;22.29;52.72;100219.22;4268549;33;33894;-73
2023/09/17 05:39:08;;;;;;;;;;;;;;;22.58;51.84;100228.13;4275780;33;33719;-73
2023/09/17 05:41:37;;;;;;;;;;;;;;;23.77;48.94;100224.66;4277408;33;33473;-74
2023/09/17 05:44:05;;;;;;;;;;;;;;;23.96;48.24;100231.69;4277062;33;34141;-73
2023/09/17 05:46:32;;;;;;;;;;;;;;;23.39;50.04;100228.22;4280596;33;33687;-72
2023/09/17 05:49:00;;;;;;;;;;;;;;;24.04;48.32;100229.88;4275665;33;34982;-74
2023/09/17 05:51:27;;;;;;;;;;;;;;;24.49;47.16;100230.59;4263313;33;33296;-74
2023/09/17 05:53:54;;;;;;;;;;;;;;;24.05;48.36;100231.66;4277861;33;33983;-72
2023/09/17 05:56:22;;;;;;;;;;;;;;;24.43;47.78;100232.38;4276290;33;34943;-75
2023/09/17 05:58:50;;;;;;;;;;;;;;;25.18;45.94;100231.91;4283561;33;35120;-72
2023/09/17 06:01:17;;;;;;;;;;;;;;;25.03;46.38;100229.38;4269842;33;33313;-73
2023/09/17 06:03:45;;;;;;;;;;;;;;;24.61;47.46;100226.13;4288167;33;33294;-74
2023/09/17 06:06:12;;;;;;;;;;;;;;;25.41;45.78;100230.87;4281852;33;33472;-74
2023/09/17 06:08:40;;;;;;;;;;;;;;;25.11;46.45;100232.84;4281129;33;34340;-73
2023/09/17 06:11:07;;;;;;;;;;;;;;;24.18;49.19;100227.19;4280042;33;32965;-72
2023/09/17 06:13:35;;;;;;;;;;;;;;;24.72;47.76;100229.59;4276414;33;34111;-72
2023/09/17 06:16:03;;;;;;;;;;;;;;;24.99;47.29;100235.59;4279034;33;34084;-72
2023/09/17 06:18:32;;;;;;;;;;;;;;;24.97;47.64;100234.72;4289811;33;34040;-74
2023/09/17 06:21:00;;;;;;;;;;;;;;;25.00;48.09;100234.72;4279524;33;33283;-75
2023/09/17 06:23:27;;;;;;;;;;;;;;;25.35;47.71;100239.75;4286993;33;34131;-74
2023/09/17 06:25:55;;;;;;;;;;;;;;;24.60;49.91;100232.31;4279003;33;34317;-73
2023/09/17 06:28:22;;;;;;;;;;;;;;;24.89;49.71;100246.25;4283843;33;34465;-72
2023/09/17 06:30:50;;;;;;;;;;;;;;;25.48;48.66;100245.84;4284458;33;34050;-74
2023/09/17 06:33:18;;;;;;;;;;;;;;;25.42;49.18;100243.22;4271719;33;34233;-73
2023/09/17 06:35:46;;;;;;;;;;;;;;;25.57;48.92;100253.69;4266234;33;34041;-75
2023/09/17 06:38:13;;;;;;;;;;;;;;;25.52;49.33;100250.22;4284393;33;34880;-72
2023/09/17 06:40:41;;;;;;;;;;;;;;;25.54;49.04;100253.72;4283561;33;33561;-72
2023/09/17 06:43:08;;;;;;;;;;;;;;;25.27;49.57;100250.44;4279202;33;35124;-74
2023/09/17 06:45:35;;;;;;;;;;;;;;;25.94;48.24;100245.41;4287065;33;33825;-72
2023/09/17 06:48:03;;;;;;;7.12;4.25;;;;;;;26.32;47.50;100246.69;4279063;33;34494;-72
2023/09/17 06:50:30;;;;;;;6.22;3.95;;;;;;;25.59;48.93;100245.72;4281705;33;33278;-74
2023/09/17 06:52:58;;;;;;;7.62;4.53;;;;;;;26.01;48.16;100249.72;4284559;33;33934;-75
2023/09/17 06:55:26;;;;;;;7.43;4.30;;;;;;;26.32;47.81;100256.44;4275694;33;33589;-72
2023/09/17 06:57:54;;;;;;;6.28;4.40;;;;;;;25.47;49.39;100257.31;4284532;33;33295;-72
2023/09/17 07:00:21;;;;;;;7.97;4.78;;;;;;;25.16;50.25;100252.25;4280908;33;33264;-72
2023/09/17 07:02:49;;;;;;;7.43;4.12;;;;;;;26.16;48.18;100247.81;4281064;33;34052;-74
2023/09/17 07:05:16;;;;;;;;;;;;;;;26.17;47.83;100257.50;4287026;33;34010;-71
2023/09/17 07:07:44;;;;;;;;;;;;;;;25.78;49.40;100257.91;4283974;33;34037;-72
2023/09/17 07:10:11;;;;;;;;;;;;;;;26.98;46.46;100261.75;4284696;33;33316;-75
2023/09/17 07:12:39;;;;;;;;;;;;;;;27.41;45.19;100254.88;4278399;33;34006;-73
2023/09/17 07:15:06;;;;;;;;;;;;;;;27.38;45.82;100252.28;4283199;33;35053;-73
2023/09/17 07:17:34;;;;;;;;;;;;;;;27.23;45.66;100251.59;4279064;33;34849;-73
2023/09/17 07:20:04;;;;;;;;;;;;;;;27.98;44.34;100252.09;4276857;33;33905;-75
2023/09/17 07:22:31;;;;;;;;;;;;;;;28.37;43.49;100253.97;4275255;33;35722;-75
2023/09/17 07:24:59;;;;;;;;;;;;;;;28.04;44.24;100256.44;4274192;33;33797;-74
2023/09/17 07:27:27;;;;;;;;;;;;;;;28.51;43.44;100256.34;4264734;33;34086;-74
2023/09/17 07:29:56;;;;;;;;;;;;;;;28.39;43.74;100258.34;4272585;33;33470;-74
2023/09/17 07:32:30;;;;;;;;;;;;;;;28.50;43.51;100260.81;4275605;33;34112;-72
2023/09/17 07:34:57;;;;;;;;;;;;;;;28.28;44.01;100259.50;4276583;33;33446;-74
2023/09/17 07:37:25;;;;;;;;;;;;;;;27.95;45.03;100262.81;4277233;33;34508;-72
2023/09/17 07:40:13;;;;;;;;;;;;;;;28.07;44.98;100260.81;4274632;33;34063;-75
2023/09/17 07:42:40;;;;;;;;;;;;;;;28.68;43.75;100259.53;4262094;33;33972;-71
2023/09/17 07:45:08;;;;;;;8.63;4.95;;;;;;;28.65;42.86;100262.28;4274643;33;34296;-71
2023/09/17 07:47:36;;;;;;;9.93;6.10;;;;;;;29.25;41.88;100254.72;4276237;33;33900;-71
2023/09/17 07:50:05;;;;;;;8.73;6.30;;;;;;;29.51;41.51;100259.38;4273634;33;34022;-74
2023/09/17 07:52:33;;;;;;;8.95;6.10;;;;;;;28.90;42.92;100259.06;4276315;33;33756;-74
2023/09/17 07:55:00;;;;;;;9.60;5.53;;;;;;;28.90;43.10;100257.28;4273686;33;34030;-76
2023/09/17 07:57:28;;;;;;;10.65;5.70;;;;;;;29.27;42.11;100264.41;4275048;33;34605;-71
2023/09/17 07:59:56;;;;;;;10.30;6.00;;;;;;;29.35;41.90;100267.75;4259786;33;34081;-72
2023/09/17 08:02:23;;;;;;;8.90;6.18;;;;;;;29.91;40.60;100267.22;4275640;33;33797;-75
2023/09/17 08:04:51;;;;;;;9.75;7.00;;;;;;;30.02;40.83;100264.25;4274473;33;34809;-74
2023/09/17 08:07:19;;;;;;;9.15;6.05;;;;;;;29.76;41.09;100264.97;4272217;33;32391;-77
2023/09/17 08:09:46;;;;;;;10.00;6.20;;;;;;;30.34;40.42;100260.66;4270545;33;34347;-74
2023/09/17 08:12:15;;;;;;;8.95;5.18;;;;;;;30.73;39.46;100260.41;4277695;33;34027;-72
2023/09/17 08:14:48;;;;;;;9.00;6.30;;;;;;;31.39;37.96;100267.22;4276210;33;33506;-75
2023/09/17 08:17:16;;;;;;;10.43;7.35;;;;;;;31.42;38.32;100270.66;4273244;33;33928;-73
2023/09/17 08:19:44;;;;;;;8.80;6.32;;;;;;;31.35;37.86;100266.44;4274494;33;33276;-73
2023/09/17 08:22:11;;;;;;;9.07;6.97;;;;;;;31.97;37.56;100269.69;4273084;33;34371;-72
2023/09/17 08:24:59;;;;;;;12.75;7.00;;;;;;;32.08;36.88;100264.84;4273789;33;34192;-73
2023/09/17 08:27:47;;;;;;;11.65;7.10;;;;;;;32.27;36.25;100262.38;4273102;33;33421;-74
2023/09/17 08:30:34;;;;;;;12.10;6.87;;;;;;;32.83;35.56;100266.50;4264960;33;31434;-75
2023/09/17 08:33:21;;;;;;;;;;;;;;;33.12;34.81;100256.41;4273665;33;34248;-75
2023/09/17 08:36:06;;;;;;;;;;;;;;;33.22;34.76;100258.63;4274561;33;33949;-73
2023/09/17 08:38:33;;;;;;;;;;;;;;;33.36;34.26;100260.75;4281577;33;34350;-72
2023/09/17 08:41:01;;;;;;;;;;;;;;;33.79;33.55;100263.44;4279278;33;33166;-71
2023/09/17 08:43:28;;;;;;;;;;;;;;;33.65;33.73;100261.31;4272654;33;33893;-72
2023/09/17 08:45:55;;;;;;;;;;;;;;;34.04;33.02;100260.53;4267616;33;34897;-74
2023/09/17 08:48:23;;;;;;;;;;;;;;;34.00;32.99;100256.22;4276821;33;34208;-72
2023/09/17 08:50:51;;;;;;;;;;;;;;;34.20;32.82;100255.34;4285094;33;33241;-73
2023/09/17 08:53:19;;;;;;;;;;;;;;;34.24;32.78;100260.50;4264877;33;35078;-72
2023/09/17 08:55:47;;;;;;;;;;;;;;;34.31;32.65;100242.28;4262943;33;33590;-75
2023/09/17 08:58:15;;;;;;;;;;;;;;;33.67;33.49;100251.41;4276376;33;34829;-74
2023/09/17 09:00:45;;;;;;;;;;;;;;;34.01;32.84;100255.28;4262639;33;33474;-73
2023/09/17 09:03:13;;;;;;;;;;;;;;;34.31;32.50;100246.75;4284124;33;33763;-74
2023/09/17 09:05:42;;;;;;;8.88;6.07;;;;;;;33.50;33.83;100252.97;4274365;33;34180;-72
2023/09/17 09:08:09;;;;;;;;;;;;;;;33.60;33.88;100248.06;4262194;33;33890;-75
2023/09/17 09:10:37;;;;;;;;;;;;;;;33.50;33.90;100257.50;4270161;33;33412;-72
2023/09/17 09:13:04;;;;;;;;;;;;;;;34.39;32.97;100247.28;4272264;33;33994;-73
2023/09/17 09:15:31;;;;;;;;;;;;;;;34.49;32.13;100245.91;4261284;33;34260;-73
2023/09/17 09:17:59;;;;;;;;;;;;;;;34.70;31.95;100243.19;4269038;33;34187;-74
2023/09/17 09:20:26;;;;;;;;;;;;;;;34.68;31.74;100242.38;4281063;33;34395;-72
2023/09/17 09:22:53;;;;;;;;;;;;;;;34.39;32.50;100242.78;4264359;33;34703;-73
2023/09/17 09:25:21;;;;;;;;;;;;;;;34.62;32.00;100249.75;4279098;33;33818;-74
2023/09/17 09:27:49;;;;;;;;;;;;;;;34.81;31.82;100238.16;4269105;33;33888;-75
2023/09/17 09:30:17;;;;;;;;;;;;;;;34.60;31.98;100230.13;4289484;33;34115;-74
2023/09/17 09:32:44;;;;;;;;;;;;;;;34.97;31.49;100233.75;4266411;33;33567;-72
2023/09/17 09:35:11;;;;;;;;;;;;;;;35.32;31.52;100232.94;4269367;33;33975;-75
2023/09/17 09:37:39;;;;;;;;;;;;;;;35.72;30.69;100233.59;4268038;33;34145;-77
2023/09/17 09:40:07;;;;;;;;;;;;;;;35.59;30.86;100236.87;4275691;33;33161;-77
2023/09/17 09:42:53;;;;;;;;;;;;;;;35.64;31.03;100234.84;4283306;33;34985;-73
2023/09/17 09:45:21;;;;;;;;;;;;;;;35.78;30.33;100231.44;4287992;33;33609;-72
2023/09/17 09:47:48;;;;;;;;;;;;;;;35.89;30.32;100238.97;4264777;33;34705;-73
2023/09/17 09:50:26;;;;;;;;;;;;;;;35.76;30.35;100233.34;4282350;33;33495;-75
2023/09/17 09:52:54;;;;;;;;;;;;;;;35.85;30.34;100233.81;4283300;33;33840;-73
2023/09/17 09:55:22;;;;;;;;;;;;;;;36.28;30.29;100234.19;4278102;33;33933;-74
2023/09/17 09:57:49;;;;;;;;;;;;;;;36.29;29.52;100230.53;4289824;33;34298;-75
2023/09/17 10:00:20;;;;;;;;;;;;;;;36.36;29.21;100234.66;4268958;33;33155;-75
2023/09/17 10:02:47;;;;;;;;;;;;;;;36.09;29.80;100228.91;4279403;33;33813;-73
2023/09/17 10:05:18;;;;;;;;;;;;;;;36.21;29.52;100229.12;4273428;33;33801;-77
2023/09/17 10:07:46;;;;;;;;;;;;;;;36.12;29.96;100226.03;4256913;33;35051;-73
2023/09/17 10:10:15;;;;;;;8.82;7.03;;;;;;;36.63;29.08;100217.88;4282841;33;33454;-75
2023/09/17 10:12:42;;;;;;;11.40;7.50;;;;;;;36.32;29.21;100214.19;4270185;33;34572;-76
2023/09/17 10:15:12;;;;;;;8.90;6.85;;;;;;;36.14;29.93;100221.44;4278637;33;33476;-77
2023/09/17 10:17:39;;;;;;;;;;;;;;;36.36;29.89;100218.47;4287747;33;33830;-75
2023/09/17 10:20:07;;;;;;;;;;;;;;;36.65;29.70;100214.16;4269570;33;33105;-73
2023/09/17 10:22:35;;;;;;;;;;;;;;;36.90;29.47;100210.88;4281166;33;34357;-76
2023/09/17 10:25:04;;;;;;;;;;;;;;;37.08;28.91;100218.88;4274317;33;174875;-73
2023/09/17 10:27:31;;;;;;;;;;;;;;;36.67;29.33;100214.91;4268401;33;34656;-77
2023/09/17 10:29:58;;;;;;;;;;;;;;;36.20;29.37;100203.13;4279482;33;33910;-76
2023/09/17 10:32:26;;;;;;;;;;;;;;;36.33;29.86;100207.81;4276314;33;34302;-74
2023/09/17 10:34:56;;;;;;;;;;;;;;;37.05;29.10;100205.53;4265028;33;33659;-76
2023/09/17 10:37:25;;;;;;;;;;;;;;;36.90;29.40;100205.50;4285063;33;34074;-75
2023/09/17 10:39:53;;;;;;;;;;;;;;;36.86;29.26;100198.53;4278518;33;32724;-77
2023/09/17 10:42:20;;;;;;;;;;;;;;;37.28;28.52;100207.78;4268147;33;34029;-73
2023/09/17 10:44:48;;;;;;;;;;;;;;;36.24;28.45;100205.63;4277903;33;34692;-77
2023/09/17 10:47:19;;;;;;;;;;;;;;;36.86;29.22;100197.63;4262131;33;34307;-75
2023/09/17 10:49:47;;;;;;;;;;;;;;;36.75;28.52;100195.59;4265157;33;33170;-76
2023/09/17 10:52:14;;;;;;;;;;;;;;;37.53;27.94;100198.16;4283459;33;34305;-76
2023/09/17 10:54:42;;;;;;;;;;;;;;;37.17;27.98;100194.91;4261684;33;35634;-73
2023/09/17 10:57:11;;;;;;;;;;;;;;;36.98;28.45;100197.81;4265059;33;34115;-75
2023/09/17 10:59:38;;;;;;;;;;;;;;;37.26;28.32;100190.78;4270255;33;34342;-73
2023/09/17 11:02:06;;;;;;;;;;;;;;;37.39;27.66;100191.78;4274258;33;34225;-74
2023/09/17 11:04:34;;;;;;;;;;;;;;;37.26;28.07;100184.50;4267971;33;33983;-73
2023/09/17 11:07:05;;;;;;;;;;;;;;;37.42;27.39;100179.03;4268418;33;34737;-75
2023/09/17 11:09:33;;;;;;;;;;;;;;;37.61;27.33;100168.00;4276524;33;34147;-74
2023/09/17 11:12:01;;;;;;;;;;;;;;;37.95;27.37;100172.16;4267274;33;34953;-73
2023/09/17 11:14:29;;;;;;;;;;;;;;;37.55;27.58;100169.22;4275554;33;34174;-73
2023/09/17 11:16:56;;;;;;;;;;;;;;;37.59;28.00;100176.16;4276100;33;33985;-74
2023/09/17 11:19:24;;;;;;;;;;;;;;;38.01;27.45;100177.16;4277427;33;33841;-73
2023/09/17 11:22:00;;;;;;;;;;;;;;;38.16;27.27;100175.38;4282246;33;34292;-73
2023/09/17 11:24:27;;;;;;;;;;;;;;;37.85;27.86;100181.84;4282093;33;33919;-72
2023/09/17 11:26:58;;;;;;;;;;;;;;;37.85;27.62;100188.09;4285278;33;33752;-73
2023/09/17 11:29:37;;;;;;;;;;;;;;;38.06;26.84;100171.50;4284387;33;33361;-75
2023/09/17 11:32:05;;;;;;;;;;;;;;;36.41;28.57;100176.78;4282062;33;33669;-74
2023/09/17 11:34:34;;;;;;;;;;;;;;;36.66;28.97;100172.69;4282166;33;34631;-75
2023/09/17 11:37:03;;;;;;;;;;;;;;;36.82;28.66;100177.19;4278823;33;34319;-77
2023/09/17 11:39:48;;;;;;;;;;;;;;;36.94;28.58;100181.88;4286465;33;33190;-73
2023/09/17 11:42:16;;;;;;;;;;;;;;;36.54;28.92;100171.53;4276171;33;34002;-73
2023/09/17 11:44:45;;;;;;;;;;;;;;;36.53;28.78;100169.81;4283065;33;34808;-75
2023/09/17 11:47:14;;;;;;;;;;;;;;;36.94;28.41;100168.38;4265164;33;34833;-73
2023/09/17 11:49:42;;;;;;;;;;;;;;;37.12;28.69;100169.09;4286647;33;33813;-76
2023/09/17 11:52:10;;;;;;;;;;;;;;;37.18;28.94;100171.47;4264094;33;34243;-73
2023/09/17 11:54:48;;;;;;;;;;;;;;;37.58;28.04;100169.03;4282095;33;34856;-76
2023/09/17 11:57:26;;;;;;;;;;;;;;;36.86;29.39;100162.53;4279286;33;34061;-74
2023/09/17 11:59:55;;;;;;;;;;;;;;;37.18;29.17;100160.66;4267403;33;33446;-73
2023/09/17 12:02:23;;;;;;;;;;;;;;;37.77;28.48;100158.84;4280463;33;34318;-72
2023/09/17 12:04:52;;;;;;;;;;;;;;;37.65;28.54;100154.22;4266400;33;34967;-75
2023/09/17 12:07:22;;;;;;;;;;;;;;;37.56;28.62;100161.03;4280854;33;34288;-74
2023/09/17 12:10:00;;;;;;;;;;;;;;;37.69;28.22;100161.16;4277953;33;34026;-72
2023/09/17 12:12:31;;;;;;;;;;;;;;;38.14;27.52;100153.81;4263142;33;34484;-72
2023/09/17 12:14:59;;;;;;;;;;;;;;;37.73;27.63;100151.91;4269656;33;34859;-72
2023/09/17 12:17:27;;;;;;;;;;;;;;;37.85;27.37;100144.84;4261787;33;33976;-74
2023/09/17 12:20:19;;;;;;;;;;;;;;;38.33;26.26;100144.50;4277763;33;33459;-74
2023/09/17 12:22:56;;;;;;;;;;;;;;;38.39;25.92;100148.66;4272804;33;34768;-76
2023/09/17 12:25:25;;;;;;;;;;;;;;;37.87;26.69;100148.31;4276950;33;33922;-74
2023/09/17 12:27:53;;;;;;;;;;;;;;;37.13;26.92;100143.88;4285176;33;34104;-72
2023/09/17 12:30:21;;;;;;;;;;;;;;;37.36;27.00;100140.66;4280220;33;33928;-75
2023/09/17 12:32:51;;;;;;;;;;;;;;;37.66;26.52;100145.13;4280374;33;35032;-73
2023/09/17 12:35:19;;;;;;;;;;;;;;;38.07;26.11;100140.78;4286048;33;35051;-75